Aérodrome :
LOGIN :

S'inscrire | Disclaimer

   EN    FR    IT 

 










Légende :    VFR   VFR Marginal   IFR   IFR Intensif   IFR Très Intensif
Visi : 
Plafond : 
>= 8 km
>= 3000ft
5 à 8 km
1000 à 3000 ft
1500m à 5 km
500 à 1000 ft
800 à 1500m
200 à 500 ft
< 800m
< 200 ft
Symboles :   Orages  Brouillard  Fortes neiges  Fortes précipitations  Vent > 20 kt
SIGMETs :   Divers  Orages  Givrage  Turbulence  Onde Orograph.  Cendres Volcan.







- Altitude de l'aérodrome : 29 ft


LIRM - Grazzanise Caserta

DERNIER METAR :
  • 190255Z 07003KT 0500 FG BKN008 21/19 Q1015

METARs EXPIRÉS :
  • 190155Z 10002KT 2500 MIFG BR FEW010 21/19 Q1015
  • 190055Z 00000KT 2000 MIFG BR FEW010 21/19 Q1015 RMK FEW VIS MIN 2000 WIND THR06 00000KT YLO

TAF AMD TAF LIRM
Valide du 19 à 03h jusqu'au 19 à 12h UTC


190300Z 1903/1912 VRB03KT CAVOK
TEMPO 1903/1906 0800 FG BKN005
BECMG 1910/1912 26010KT
Pas de NOTAMs connus pour ce terrain.



MET'MAP, la Météo Aéronautique d'un coup d'oeil ! - Copyright ORBIFLY Décembre 2007 - Disclaimer

ORBIFLY MET'MAP TEAM :

Programmation & Développement : Alexandra Zaïnal
Conception & Développement : Baudouin d'Aumeries
Co-Programmation & Développement : Marc-Olivier Méhu
Soutien technique & logistique : Manuel Goepfert

Contact : metmap@orbifly.com




SOURCES & CREDITS :

   NOAA